sensor_id;sensor_type;location;lat;lon;timestamp;P1;durP1;ratioP1;P2;durP2;ratioP2
76606;SDS011;65498;50.916;4.698;2023-04-30T00:01:32;12.28;;;7.60;;
76606;SDS011;65498;50.916;4.698;2023-04-30T00:04:00;10.93;;;7.90;;
76606;SDS011;65498;50.916;4.698;2023-04-30T00:06:28;11.65;;;8.25;;
76606;SDS011;65498;50.916;4.698;2023-04-30T00:08:56;12.50;;;8.55;;
76606;SDS011;65498;50.916;4.698;2023-04-30T00:11:23;11.28;;;7.70;;
76606;SDS011;65498;50.916;4.698;2023-04-30T00:13:51;11.48;;;7.58;;
76606;SDS011;65498;50.916;4.698;2023-04-30T00:16:21;10.80;;;7.65;;
76606;SDS011;65498;50.916;4.698;2023-04-30T00:18:49;11.10;;;7.75;;
76606;SDS011;65498;50.916;4.698;2023-04-30T00:21:16;11.60;;;7.70;;
76606;SDS011;65498;50.916;4.698;2023-04-30T00:23:44;10.50;;;7.47;;
76606;SDS011;65498;50.916;4.698;2023-04-30T00:26:11;10.90;;;7.55;;
76606;SDS011;65498;50.916;4.698;2023-04-30T00:28:39;12.18;;;8.20;;
76606;SDS011;65498;50.916;4.698;2023-04-30T00:31:06;11.15;;;7.92;;
76606;SDS011;65498;50.916;4.698;2023-04-30T00:33:34;12.37;;;7.97;;
76606;SDS011;65498;50.916;4.698;2023-04-30T00:36:01;11.12;;;7.47;;
76606;SDS011;65498;50.916;4.698;2023-04-30T00:38:29;10.90;;;7.70;;
76606;SDS011;65498;50.916;4.698;2023-04-30T00:40:57;11.10;;;7.33;;
76606;SDS011;65498;50.916;4.698;2023-04-30T00:43:24;15.00;;;8.25;;
76606;SDS011;65498;50.916;4.698;2023-04-30T00:45:52;19.82;;;10.38;;
76606;SDS011;65498;50.916;4.698;2023-04-30T00:48:19;20.68;;;9.70;;
76606;SDS011;65498;50.916;4.698;2023-04-30T00:50:47;17.90;;;8.28;;
76606;SDS011;65498;50.916;4.698;2023-04-30T00:53:15;15.25;;;8.48;;
76606;SDS011;65498;50.916;4.698;2023-04-30T00:55:43;16.20;;;8.60;;
76606;SDS011;65498;50.916;4.698;2023-04-30T00:58:11;13.98;;;8.38;;
76606;SDS011;65498;50.916;4.698;2023-04-30T01:00:38;15.70;;;8.18;;
76606;SDS011;65498;50.916;4.698;2023-04-30T01:03:08;17.42;;;8.03;;
76606;SDS011;65498;50.916;4.698;2023-04-30T01:05:36;14.70;;;8.33;;
76606;SDS011;65498;50.916;4.698;2023-04-30T01:08:03;14.90;;;7.78;;
76606;SDS011;65498;50.916;4.698;2023-04-30T01:10:34;17.00;;;8.08;;
76606;SDS011;65498;50.916;4.698;2023-04-30T01:13:07;15.15;;;7.53;;
76606;SDS011;65498;50.916;4.698;2023-04-30T01:15:46;18.48;;;8.20;;
76606;SDS011;65498;50.916;4.698;2023-04-30T01:18:30;17.42;;;7.95;;
76606;SDS011;65498;50.916;4.698;2023-04-30T01:21:04;15.63;;;7.53;;
76606;SDS011;65498;50.916;4.698;2023-04-30T01:29:26;13.68;;;7.60;;
76606;SDS011;65498;50.916;4.698;2023-04-30T01:31:56;16.42;;;7.92;;
76606;SDS011;65498;50.916;4.698;2023-04-30T01:34:23;16.05;;;7.45;;
76606;SDS011;65498;50.916;4.698;2023-04-30T01:39:37;11.35;;;6.50;;
76606;SDS011;65498;50.916;4.698;2023-04-30T01:42:20;11.73;;;6.72;;
76606;SDS011;65498;50.916;4.698;2023-04-30T01:47:39;17.00;;;7.00;;
76606;SDS011;65498;50.916;4.698;2023-04-30T01:50:14;11.33;;;6.90;;
76606;SDS011;65498;50.916;4.698;2023-04-30T01:52:59;11.83;;;6.70;;
76606;SDS011;65498;50.916;4.698;2023-04-30T01:55:54;11.08;;;6.42;;
76606;SDS011;65498;50.916;4.698;2023-04-30T01:58:08;12.30;;;5.97;;
76606;SDS011;65498;50.916;4.698;2023-04-30T02:00:37;13.13;;;6.78;;
76606;SDS011;65498;50.916;4.698;2023-04-30T02:03:04;12.43;;;6.37;;
76606;SDS011;65498;50.916;4.698;2023-04-30T02:05:32;12.28;;;6.45;;
76606;SDS011;65498;50.916;4.698;2023-04-30T02:08:00;11.40;;;6.20;;
76606;SDS011;65498;50.916;4.698;2023-04-30T02:10:28;11.10;;;6.28;;
76606;SDS011;65498;50.916;4.698;2023-04-30T02:12:55;11.18;;;6.35;;
76606;SDS011;65498;50.916;4.698;2023-04-30T02:15:23;11.08;;;5.90;;
76606;SDS011;65498;50.916;4.698;2023-04-30T02:17:50;10.88;;;5.83;;
76606;SDS011;65498;50.916;4.698;2023-04-30T02:20:18;10.90;;;5.85;;
76606;SDS011;65498;50.916;4.698;2023-04-30T02:22:46;10.35;;;5.90;;
76606;SDS011;65498;50.916;4.698;2023-04-30T02:25:13;10.55;;;6.30;;
76606;SDS011;65498;50.916;4.698;2023-04-30T02:27:41;10.90;;;5.85;;
76606;SDS011;65498;50.916;4.698;2023-04-30T02:30:08;11.10;;;5.62;;
76606;SDS011;65498;50.916;4.698;2023-04-30T02:32:36;11.28;;;5.80;;
76606;SDS011;65498;50.916;4.698;2023-04-30T02:35:03;10.93;;;5.78;;
76606;SDS011;65498;50.916;4.698;2023-04-30T02:37:31;11.53;;;6.75;;
76606;SDS011;65498;50.916;4.698;2023-04-30T02:39:59;10.28;;;5.33;;
76606;SDS011;65498;50.916;4.698;2023-04-30T02:42:26;10.38;;;5.40;;
76606;SDS011;65498;50.916;4.698;2023-04-30T02:44:54;9.03;;;5.20;;
76606;SDS011;65498;50.916;4.698;2023-04-30T02:47:21;10.38;;;5.37;;
76606;SDS011;65498;50.916;4.698;2023-04-30T02:49:49;9.65;;;5.25;;
76606;SDS011;65498;50.916;4.698;2023-04-30T02:52:16;9.93;;;5.47;;
76606;SDS011;65498;50.916;4.698;2023-04-30T02:54:44;9.40;;;5.28;;
76606;SDS011;65498;50.916;4.698;2023-04-30T02:57:11;10.20;;;5.65;;
76606;SDS011;65498;50.916;4.698;2023-04-30T02:59:39;9.63;;;4.80;;
76606;SDS011;65498;50.916;4.698;2023-04-30T03:02:08;15.38;;;6.67;;
76606;SDS011;65498;50.916;4.698;2023-04-30T03:04:36;9.25;;;5.33;;
76606;SDS011;65498;50.916;4.698;2023-04-30T03:07:03;9.48;;;4.92;;
76606;SDS011;65498;50.916;4.698;2023-04-30T03:09:31;8.33;;;4.92;;
76606;SDS011;65498;50.916;4.698;2023-04-30T03:11:59;9.00;;;4.72;;
76606;SDS011;65498;50.916;4.698;2023-04-30T03:14:27;8.53;;;4.90;;
76606;SDS011;65498;50.916;4.698;2023-04-30T03:16:55;9.28;;;4.87;;
76606;SDS011;65498;50.916;4.698;2023-04-30T03:19:22;8.15;;;4.53;;
76606;SDS011;65498;50.916;4.698;2023-04-30T03:21:50;9.00;;;4.60;;
76606;SDS011;65498;50.916;4.698;2023-04-30T03:24:18;12.05;;;4.72;;
76606;SDS011;65498;50.916;4.698;2023-04-30T03:26:45;9.33;;;5.05;;
76606;SDS011;65498;50.916;4.698;2023-04-30T03:29:13;9.05;;;5.30;;
76606;SDS011;65498;50.916;4.698;2023-04-30T03:31:41;8.35;;;4.33;;
76606;SDS011;65498;50.916;4.698;2023-04-30T03:34:08;8.23;;;4.60;;
76606;SDS011;65498;50.916;4.698;2023-04-30T03:36:36;8.70;;;4.60;;
76606;SDS011;65498;50.916;4.698;2023-04-30T03:39:03;8.93;;;4.70;;
76606;SDS011;65498;50.916;4.698;2023-04-30T03:41:32;8.48;;;3.95;;
76606;SDS011;65498;50.916;4.698;2023-04-30T03:44:00;8.85;;;4.60;;
76606;SDS011;65498;50.916;4.698;2023-04-30T03:46:27;8.78;;;4.58;;
76606;SDS011;65498;50.916;4.698;2023-04-30T03:48:55;11.10;;;4.95;;
76606;SDS011;65498;50.916;4.698;2023-04-30T03:51:22;7.72;;;4.58;;
76606;SDS011;65498;50.916;4.698;2023-04-30T03:53:50;9.28;;;4.33;;
76606;SDS011;65498;50.916;4.698;2023-04-30T03:56:17;9.43;;;4.53;;
76606;SDS011;65498;50.916;4.698;2023-04-30T03:58:45;7.60;;;4.15;;
76606;SDS011;65498;50.916;4.698;2023-04-30T04:01:13;7.15;;;3.75;;
76606;SDS011;65498;50.916;4.698;2023-04-30T04:03:41;8.45;;;3.87;;
76606;SDS011;65498;50.916;4.698;2023-04-30T04:06:08;9.33;;;4.08;;
76606;SDS011;65498;50.916;4.698;2023-04-30T04:08:36;8.18;;;3.80;;
76606;SDS011;65498;50.916;4.698;2023-04-30T04:11:03;6.97;;;4.22;;
76606;SDS011;65498;50.916;4.698;2023-04-30T04:13:31;7.92;;;4.10;;
76606;SDS011;65498;50.916;4.698;2023-04-30T04:15:58;8.65;;;3.80;;
76606;SDS011;65498;50.916;4.698;2023-04-30T04:18:26;7.80;;;3.80;;
76606;SDS011;65498;50.916;4.698;2023-04-30T04:20:54;7.60;;;3.83;;
76606;SDS011;65498;50.916;4.698;2023-04-30T04:23:22;7.08;;;3.55;;
76606;SDS011;65498;50.916;4.698;2023-04-30T04:25:49;7.20;;;3.87;;
76606;SDS011;65498;50.916;4.698;2023-04-30T04:28:17;6.97;;;3.65;;
76606;SDS011;65498;50.916;4.698;2023-04-30T04:30:46;8.48;;;4.30;;
76606;SDS011;65498;50.916;4.698;2023-04-30T04:33:14;9.15;;;3.80;;
76606;SDS011;65498;50.916;4.698;2023-04-30T04:35:42;6.80;;;3.40;;
76606;SDS011;65498;50.916;4.698;2023-04-30T04:38:09;7.35;;;3.80;;
76606;SDS011;65498;50.916;4.698;2023-04-30T04:40:37;7.60;;;3.70;;
76606;SDS011;65498;50.916;4.698;2023-04-30T04:43:04;6.97;;;3.65;;
76606;SDS011;65498;50.916;4.698;2023-04-30T04:45:32;7.40;;;3.85;;
76606;SDS011;65498;50.916;4.698;2023-04-30T04:48:00;6.75;;;3.52;;
76606;SDS011;65498;50.916;4.698;2023-04-30T04:50:28;7.90;;;3.45;;
76606;SDS011;65498;50.916;4.698;2023-04-30T04:52:55;8.25;;;3.77;;
76606;SDS011;65498;50.916;4.698;2023-04-30T04:55:23;6.95;;;3.20;;
76606;SDS011;65498;50.916;4.698;2023-04-30T04:57:50;7.37;;;3.42;;
76606;SDS011;65498;50.916;4.698;2023-04-30T05:00:18;6.92;;;3.30;;
76606;SDS011;65498;50.916;4.698;2023-04-30T05:02:48;6.65;;;3.60;;
76606;SDS011;65498;50.916;4.698;2023-04-30T05:05:16;6.65;;;3.35;;
76606;SDS011;65498;50.916;4.698;2023-04-30T05:07:43;6.10;;;3.22;;
76606;SDS011;65498;50.916;4.698;2023-04-30T05:10:11;13.40;;;4.12;;
76606;SDS011;65498;50.916;4.698;2023-04-30T05:12:38;6.95;;;3.10;;
76606;SDS011;65498;50.916;4.698;2023-04-30T05:15:06;6.55;;;3.22;;
76606;SDS011;65498;50.916;4.698;2023-04-30T05:17:34;7.05;;;3.33;;
76606;SDS011;65498;50.916;4.698;2023-04-30T05:20:02;5.92;;;3.00;;
76606;SDS011;65498;50.916;4.698;2023-04-30T05:22:32;6.33;;;3.58;;
76606;SDS011;65498;50.916;4.698;2023-04-30T05:24:59;7.47;;;3.30;;
76606;SDS011;65498;50.916;4.698;2023-04-30T05:27:27;6.67;;;3.30;;
76606;SDS011;65498;50.916;4.698;2023-04-30T05:29:54;6.53;;;3.40;;
76606;SDS011;65498;50.916;4.698;2023-04-30T05:32:22;7.00;;;2.95;;
76606;SDS011;65498;50.916;4.698;2023-04-30T05:34:49;7.10;;;4.37;;
76606;SDS011;65498;50.916;4.698;2023-04-30T05:37:17;6.28;;;2.92;;
76606;SDS011;65498;50.916;4.698;2023-04-30T05:39:45;6.42;;;3.47;;
76606;SDS011;65498;50.916;4.698;2023-04-30T05:42:13;6.92;;;3.10;;
76606;SDS011;65498;50.916;4.698;2023-04-30T05:44:40;7.17;;;3.30;;
76606;SDS011;65498;50.916;4.698;2023-04-30T05:47:08;6.50;;;3.15;;
76606;SDS011;65498;50.916;4.698;2023-04-30T05:49:35;6.35;;;3.12;;
76606;SDS011;65498;50.916;4.698;2023-04-30T05:52:03;6.40;;;2.87;;
76606;SDS011;65498;50.916;4.698;2023-04-30T05:54:31;7.12;;;3.20;;
76606;SDS011;65498;50.916;4.698;2023-04-30T05:56:58;6.12;;;3.00;;
76606;SDS011;65498;50.916;4.698;2023-04-30T05:59:27;6.12;;;2.75;;
76606;SDS011;65498;50.916;4.698;2023-04-30T06:01:54;7.85;;;3.00;;
76606;SDS011;65498;50.916;4.698;2023-04-30T06:04:23;5.90;;;2.80;;
76606;SDS011;65498;50.916;4.698;2023-04-30T06:06:50;7.62;;;3.37;;
76606;SDS011;65498;50.916;4.698;2023-04-30T06:09:18;6.28;;;3.40;;
76606;SDS011;65498;50.916;4.698;2023-04-30T06:11:46;7.60;;;2.90;;
76606;SDS011;65498;50.916;4.698;2023-04-30T06:14:15;6.70;;;3.03;;
76606;SDS011;65498;50.916;4.698;2023-04-30T06:16:44;6.60;;;3.50;;
76606;SDS011;65498;50.916;4.698;2023-04-30T06:19:13;6.92;;;2.77;;
76606;SDS011;65498;50.916;4.698;2023-04-30T06:21:40;8.73;;;2.98;;
76606;SDS011;65498;50.916;4.698;2023-04-30T06:24:11;5.58;;;2.70;;
76606;SDS011;65498;50.916;4.698;2023-04-30T06:26:38;6.53;;;3.10;;
76606;SDS011;65498;50.916;4.698;2023-04-30T06:29:06;5.87;;;2.80;;
76606;SDS011;65498;50.916;4.698;2023-04-30T06:31:33;6.55;;;2.98;;
76606;SDS011;65498;50.916;4.698;2023-04-30T06:34:01;5.97;;;2.90;;
76606;SDS011;65498;50.916;4.698;2023-04-30T06:36:29;6.97;;;2.83;;
76606;SDS011;65498;50.916;4.698;2023-04-30T06:38:56;6.42;;;2.80;;
76606;SDS011;65498;50.916;4.698;2023-04-30T06:41:24;6.03;;;2.90;;
76606;SDS011;65498;50.916;4.698;2023-04-30T06:43:51;6.42;;;3.05;;
76606;SDS011;65498;50.916;4.698;2023-04-30T06:46:19;7.87;;;2.80;;
76606;SDS011;65498;50.916;4.698;2023-04-30T06:48:46;5.83;;;2.40;;
76606;SDS011;65498;50.916;4.698;2023-04-30T06:51:14;6.22;;;2.77;;
76606;SDS011;65498;50.916;4.698;2023-04-30T06:53:41;5.90;;;2.60;;
76606;SDS011;65498;50.916;4.698;2023-04-30T06:56:09;6.12;;;2.83;;
76606;SDS011;65498;50.916;4.698;2023-04-30T06:58:36;6.83;;;2.98;;
76606;SDS011;65498;50.916;4.698;2023-04-30T07:01:04;6.42;;;2.95;;
76606;SDS011;65498;50.916;4.698;2023-04-30T07:03:32;6.35;;;2.42;;
76606;SDS011;65498;50.916;4.698;2023-04-30T07:06:01;6.22;;;2.37;;
76606;SDS011;65498;50.916;4.698;2023-04-30T07:08:28;5.72;;;2.62;;
76606;SDS011;65498;50.916;4.698;2023-04-30T07:10:56;6.25;;;2.83;;
76606;SDS011;65498;50.916;4.698;2023-04-30T07:13:23;6.37;;;2.90;;
76606;SDS011;65498;50.916;4.698;2023-04-30T07:15:51;5.50;;;2.77;;
76606;SDS011;65498;50.916;4.698;2023-04-30T07:18:19;7.28;;;3.08;;
76606;SDS011;65498;50.916;4.698;2023-04-30T07:20:47;6.30;;;2.80;;
76606;SDS011;65498;50.916;4.698;2023-04-30T07:23:14;6.25;;;2.77;;
76606;SDS011;65498;50.916;4.698;2023-04-30T07:25:42;5.70;;;2.45;;
76606;SDS011;65498;50.916;4.698;2023-04-30T07:28:10;6.20;;;2.70;;
76606;SDS011;65498;50.916;4.698;2023-04-30T07:30:37;6.08;;;2.55;;
76606;SDS011;65498;50.916;4.698;2023-04-30T07:33:05;5.40;;;2.45;;
76606;SDS011;65498;50.916;4.698;2023-04-30T07:35:34;6.95;;;2.80;;
76606;SDS011;65498;50.916;4.698;2023-04-30T07:38:02;5.78;;;2.27;;
76606;SDS011;65498;50.916;4.698;2023-04-30T07:40:31;9.75;;;3.10;;
76606;SDS011;65498;50.916;4.698;2023-04-30T07:42:58;5.90;;;2.75;;
76606;SDS011;65498;50.916;4.698;2023-04-30T07:45:26;5.30;;;2.40;;
76606;SDS011;65498;50.916;4.698;2023-04-30T07:47:53;5.55;;;2.47;;
76606;SDS011;65498;50.916;4.698;2023-04-30T07:50:21;6.00;;;3.05;;
76606;SDS011;65498;50.916;4.698;2023-04-30T07:52:48;6.75;;;2.70;;
76606;SDS011;65498;50.916;4.698;2023-04-30T07:55:16;5.62;;;2.47;;
76606;SDS011;65498;50.916;4.698;2023-04-30T07:57:43;6.10;;;2.85;;
76606;SDS011;65498;50.916;4.698;2023-04-30T08:00:11;5.62;;;2.75;;
76606;SDS011;65498;50.916;4.698;2023-04-30T08:02:40;7.03;;;3.17;;
76606;SDS011;65498;50.916;4.698;2023-04-30T08:05:10;7.72;;;3.25;;
76606;SDS011;65498;50.916;4.698;2023-04-30T08:07:37;7.15;;;3.12;;
76606;SDS011;65498;50.916;4.698;2023-04-30T08:10:06;7.50;;;3.17;;
76606;SDS011;65498;50.916;4.698;2023-04-30T08:12:37;9.48;;;3.12;;
76606;SDS011;65498;50.916;4.698;2023-04-30T08:15:05;6.67;;;3.17;;
76606;SDS011;65498;50.916;4.698;2023-04-30T08:17:33;6.42;;;3.05;;
76606;SDS011;65498;50.916;4.698;2023-04-30T08:20:02;10.63;;;3.30;;
76606;SDS011;65498;50.916;4.698;2023-04-30T08:22:30;8.30;;;3.10;;
76606;SDS011;65498;50.916;4.698;2023-04-30T08:24:58;6.30;;;2.83;;
76606;SDS011;65498;50.916;4.698;2023-04-30T08:27:26;7.10;;;2.90;;
76606;SDS011;65498;50.916;4.698;2023-04-30T08:29:55;8.67;;;3.60;;
76606;SDS011;65498;50.916;4.698;2023-04-30T08:32:23;6.55;;;3.10;;
76606;SDS011;65498;50.916;4.698;2023-04-30T08:34:50;6.70;;;3.02;;
76606;SDS011;65498;50.916;4.698;2023-04-30T08:37:18;6.20;;;3.00;;
76606;SDS011;65498;50.916;4.698;2023-04-30T08:39:46;6.37;;;3.17;;
76606;SDS011;65498;50.916;4.698;2023-04-30T08:42:13;6.67;;;3.00;;
76606;SDS011;65498;50.916;4.698;2023-04-30T08:44:42;6.22;;;3.10;;
76606;SDS011;65498;50.916;4.698;2023-04-30T08:47:11;7.35;;;3.33;;
76606;SDS011;65498;50.916;4.698;2023-04-30T08:49:40;6.70;;;2.92;;
76606;SDS011;65498;50.916;4.698;2023-04-30T08:52:09;7.35;;;2.98;;
76606;SDS011;65498;50.916;4.698;2023-04-30T08:54:36;6.10;;;3.05;;
76606;SDS011;65498;50.916;4.698;2023-04-30T08:57:04;5.72;;;2.85;;
76606;SDS011;65498;50.916;4.698;2023-04-30T08:59:32;6.85;;;2.92;;
76606;SDS011;65498;50.916;4.698;2023-04-30T09:02:00;6.40;;;2.90;;
76606;SDS011;65498;50.916;4.698;2023-04-30T09:04:27;6.20;;;2.90;;
76606;SDS011;65498;50.916;4.698;2023-04-30T09:06:55;7.37;;;3.17;;
76606;SDS011;65498;50.916;4.698;2023-04-30T09:09:29;7.78;;;3.58;;
76606;SDS011;65498;50.916;4.698;2023-04-30T09:12:11;6.53;;;2.87;;
76606;SDS011;65498;50.916;4.698;2023-04-30T09:15:01;6.67;;;3.15;;
76606;SDS011;65498;50.916;4.698;2023-04-30T09:17:26;8.55;;;2.90;;
76606;SDS011;65498;50.916;4.698;2023-04-30T09:19:55;8.00;;;3.62;;
76606;SDS011;65498;50.916;4.698;2023-04-30T09:22:34;9.00;;;3.70;;
76606;SDS011;65498;50.916;4.698;2023-04-30T09:25:03;10.05;;;4.20;;
76606;SDS011;65498;50.916;4.698;2023-04-30T09:27:31;6.45;;;3.52;;
76606;SDS011;65498;50.916;4.698;2023-04-30T09:29:59;8.53;;;4.15;;
76606;SDS011;65498;50.916;4.698;2023-04-30T09:32:27;7.92;;;3.55;;
76606;SDS011;65498;50.916;4.698;2023-04-30T09:34:54;8.43;;;3.40;;
76606;SDS011;65498;50.916;4.698;2023-04-30T09:37:33;7.42;;;3.80;;
76606;SDS011;65498;50.916;4.698;2023-04-30T09:40:01;7.80;;;3.63;;
76606;SDS011;65498;50.916;4.698;2023-04-30T09:42:29;7.03;;;3.65;;
76606;SDS011;65498;50.916;4.698;2023-04-30T09:44:56;7.00;;;3.70;;
76606;SDS011;65498;50.916;4.698;2023-04-30T09:47:28;8.05;;;4.15;;
76606;SDS011;65498;50.916;4.698;2023-04-30T09:49:57;8.13;;;3.90;;
76606;SDS011;65498;50.916;4.698;2023-04-30T09:52:25;10.40;;;3.80;;
76606;SDS011;65498;50.916;4.698;2023-04-30T09:54:53;8.40;;;4.12;;
76606;SDS011;65498;50.916;4.698;2023-04-30T09:57:22;7.62;;;3.95;;
76606;SDS011;65498;50.916;4.698;2023-04-30T09:59:49;11.00;;;4.17;;
76606;SDS011;65498;50.916;4.698;2023-04-30T10:02:19;7.33;;;3.77;;
76606;SDS011;65498;50.916;4.698;2023-04-30T10:04:48;10.08;;;3.62;;
76606;SDS011;65498;50.916;4.698;2023-04-30T10:07:19;6.90;;;3.47;;
76606;SDS011;65498;50.916;4.698;2023-04-30T10:09:50;8.25;;;4.40;;
76606;SDS011;65498;50.916;4.698;2023-04-30T10:12:29;7.42;;;4.03;;
76606;SDS011;65498;50.916;4.698;2023-04-30T10:14:57;9.18;;;3.72;;
76606;SDS011;65498;50.916;4.698;2023-04-30T10:17:27;9.13;;;4.33;;
76606;SDS011;65498;50.916;4.698;2023-04-30T10:20:00;8.63;;;3.83;;
76606;SDS011;65498;50.916;4.698;2023-04-30T10:22:29;11.97;;;5.58;;
76606;SDS011;65498;50.916;4.698;2023-04-30T10:24:58;9.05;;;4.90;;
76606;SDS011;65498;50.916;4.698;2023-04-30T10:27:27;7.47;;;4.00;;
76606;SDS011;65498;50.916;4.698;2023-04-30T10:29:55;9.60;;;4.42;;
76606;SDS011;65498;50.916;4.698;2023-04-30T10:32:25;8.20;;;4.70;;
76606;SDS011;65498;50.916;4.698;2023-04-30T10:37:30;7.30;;;4.00;;
76606;SDS011;65498;50.916;4.698;2023-04-30T10:39:58;7.62;;;4.20;;
76606;SDS011;65498;50.916;4.698;2023-04-30T10:42:26;8.60;;;4.92;;
76606;SDS011;65498;50.916;4.698;2023-04-30T10:44:54;8.73;;;4.10;;
76606;SDS011;65498;50.916;4.698;2023-04-30T10:47:27;7.95;;;4.53;;
76606;SDS011;65498;50.916;4.698;2023-04-30T10:50:01;8.60;;;4.00;;
76606;SDS011;65498;50.916;4.698;2023-04-30T10:52:29;8.70;;;3.83;;
76606;SDS011;65498;50.916;4.698;2023-04-30T10:54:57;8.33;;;4.30;;
76606;SDS011;65498;50.916;4.698;2023-04-30T10:57:26;8.43;;;4.13;;
76606;SDS011;65498;50.916;4.698;2023-04-30T11:02:39;7.12;;;3.90;;
76606;SDS011;65498;50.916;4.698;2023-04-30T11:05:09;8.85;;;4.15;;
76606;SDS011;65498;50.916;4.698;2023-04-30T11:07:47;8.10;;;4.00;;
76606;SDS011;65498;50.916;4.698;2023-04-30T11:10:20;7.10;;;3.50;;
76606;SDS011;65498;50.916;4.698;2023-04-30T11:12:49;7.03;;;3.62;;
76606;SDS011;65498;50.916;4.698;2023-04-30T11:15:19;8.33;;;4.22;;
76606;SDS011;65498;50.916;4.698;2023-04-30T11:17:48;7.25;;;3.58;;
76606;SDS011;65498;50.916;4.698;2023-04-30T11:20:20;7.00;;;3.80;;
76606;SDS011;65498;50.916;4.698;2023-04-30T11:25:39;7.62;;;3.75;;
76606;SDS011;65498;50.916;4.698;2023-04-30T11:28:16;6.80;;;3.33;;
76606;SDS011;65498;50.916;4.698;2023-04-30T11:30:55;8.05;;;3.77;;
76606;SDS011;65498;50.916;4.698;2023-04-30T11:33:27;7.28;;;3.30;;
76606;SDS011;65498;50.916;4.698;2023-04-30T11:35:57;8.50;;;4.10;;
76606;SDS011;65498;50.916;4.698;2023-04-30T11:38:29;7.60;;;4.28;;
76606;SDS011;65498;50.916;4.698;2023-04-30T11:40:59;8.40;;;4.03;;
76606;SDS011;65498;50.916;4.698;2023-04-30T11:43:28;9.43;;;3.50;;
76606;SDS011;65498;50.916;4.698;2023-04-30T11:46:00;7.17;;;3.42;;
76606;SDS011;65498;50.916;4.698;2023-04-30T11:48:33;7.62;;;3.65;;
76606;SDS011;65498;50.916;4.698;2023-04-30T11:51:19;7.03;;;3.80;;
76606;SDS011;65498;50.916;4.698;2023-04-30T11:53:49;6.67;;;3.52;;
76606;SDS011;65498;50.916;4.698;2023-04-30T11:56:21;6.85;;;3.30;;
76606;SDS011;65498;50.916;4.698;2023-04-30T11:58:51;8.10;;;3.80;;
76606;SDS011;65498;50.916;4.698;2023-04-30T12:03:48;8.03;;;3.58;;
76606;SDS011;65498;50.916;4.698;2023-04-30T12:06:24;6.47;;;3.37;;
76606;SDS011;65498;50.916;4.698;2023-04-30T12:08:54;7.47;;;3.75;;
76606;SDS011;65498;50.916;4.698;2023-04-30T12:11:27;6.45;;;3.37;;
76606;SDS011;65498;50.916;4.698;2023-04-30T12:13:56;7.50;;;3.40;;
76606;SDS011;65498;50.916;4.698;2023-04-30T12:16:26;6.97;;;3.37;;
76606;SDS011;65498;50.916;4.698;2023-04-30T12:18:56;6.03;;;2.95;;
76606;SDS011;65498;50.916;4.698;2023-04-30T12:21:23;8.18;;;3.22;;
76606;SDS011;65498;50.916;4.698;2023-04-30T12:23:51;7.90;;;3.25;;
76606;SDS011;65498;50.916;4.698;2023-04-30T12:26:19;8.35;;;3.67;;
76606;SDS011;65498;50.916;4.698;2023-04-30T12:28:47;5.85;;;2.87;;
76606;SDS011;65498;50.916;4.698;2023-04-30T12:31:18;6.50;;;3.15;;
76606;SDS011;65498;50.916;4.698;2023-04-30T12:33:52;9.05;;;3.85;;
76606;SDS011;65498;50.916;4.698;2023-04-30T12:36:34;7.25;;;3.50;;
76606;SDS011;65498;50.916;4.698;2023-04-30T12:39:05;8.18;;;3.45;;
76606;SDS011;65498;50.916;4.698;2023-04-30T12:41:42;7.90;;;3.10;;
76606;SDS011;65498;50.916;4.698;2023-04-30T12:44:15;7.33;;;3.37;;
76606;SDS011;65498;50.916;4.698;2023-04-30T12:46:44;6.60;;;3.00;;
76606;SDS011;65498;50.916;4.698;2023-04-30T12:49:23;6.10;;;3.08;;
76606;SDS011;65498;50.916;4.698;2023-04-30T12:52:02;5.90;;;2.60;;
76606;SDS011;65498;50.916;4.698;2023-04-30T12:54:33;6.20;;;3.02;;
76606;SDS011;65498;50.916;4.698;2023-04-30T12:57:02;6.90;;;3.10;;
76606;SDS011;65498;50.916;4.698;2023-04-30T12:59:38;6.45;;;2.92;;
76606;SDS011;65498;50.916;4.698;2023-04-30T13:02:08;6.22;;;2.83;;
76606;SDS011;65498;50.916;4.698;2023-04-30T13:04:40;6.47;;;3.00;;
76606;SDS011;65498;50.916;4.698;2023-04-30T13:07:09;6.17;;;2.40;;
76606;SDS011;65498;50.916;4.698;2023-04-30T13:09:36;6.00;;;2.90;;
76606;SDS011;65498;50.916;4.698;2023-04-30T13:12:04;6.33;;;2.85;;
76606;SDS011;65498;50.916;4.698;2023-04-30T13:14:32;5.53;;;2.70;;
76606;SDS011;65498;50.916;4.698;2023-04-30T13:17:01;8.20;;;3.37;;
76606;SDS011;65498;50.916;4.698;2023-04-30T13:19:30;7.53;;;2.65;;
76606;SDS011;65498;50.916;4.698;2023-04-30T13:21:58;5.83;;;2.50;;
76606;SDS011;65498;50.916;4.698;2023-04-30T13:24:28;5.70;;;2.67;;
76606;SDS011;65498;50.916;4.698;2023-04-30T13:26:55;6.67;;;2.47;;
76606;SDS011;65498;50.916;4.698;2023-04-30T13:29:24;6.22;;;2.40;;
76606;SDS011;65498;50.916;4.698;2023-04-30T13:31:51;5.83;;;2.77;;
76606;SDS011;65498;50.916;4.698;2023-04-30T13:34:19;8.90;;;3.72;;
76606;SDS011;65498;50.916;4.698;2023-04-30T13:36:46;5.87;;;2.83;;
76606;SDS011;65498;50.916;4.698;2023-04-30T13:39:14;5.80;;;2.50;;
76606;SDS011;65498;50.916;4.698;2023-04-30T13:41:41;5.70;;;2.40;;
76606;SDS011;65498;50.916;4.698;2023-04-30T13:44:09;6.30;;;2.35;;
76606;SDS011;65498;50.916;4.698;2023-04-30T13:46:37;6.30;;;2.50;;
76606;SDS011;65498;50.916;4.698;2023-04-30T13:49:04;5.42;;;2.52;;
76606;SDS011;65498;50.916;4.698;2023-04-30T13:51:32;6.12;;;2.47;;
76606;SDS011;65498;50.916;4.698;2023-04-30T13:53:59;8.68;;;2.62;;
76606;SDS011;65498;50.916;4.698;2023-04-30T13:56:27;5.20;;;2.30;;
76606;SDS011;65498;50.916;4.698;2023-04-30T13:58:55;5.10;;;2.05;;
76606;SDS011;65498;50.916;4.698;2023-04-30T14:01:22;6.10;;;2.40;;
76606;SDS011;65498;50.916;4.698;2023-04-30T14:03:50;6.10;;;2.30;;
76606;SDS011;65498;50.916;4.698;2023-04-30T14:06:18;5.67;;;2.30;;
76606;SDS011;65498;50.916;4.698;2023-04-30T14:08:45;7.28;;;2.40;;
76606;SDS011;65498;50.916;4.698;2023-04-30T14:11:13;6.35;;;2.17;;
76606;SDS011;65498;50.916;4.698;2023-04-30T14:13:40;5.72;;;2.30;;
76606;SDS011;65498;50.916;4.698;2023-04-30T14:16:08;6.22;;;2.10;;
76606;SDS011;65498;50.916;4.698;2023-04-30T14:18:35;5.03;;;2.08;;
76606;SDS011;65498;50.916;4.698;2023-04-30T14:21:03;5.08;;;1.90;;
76606;SDS011;65498;50.916;4.698;2023-04-30T14:23:31;4.92;;;2.08;;
76606;SDS011;65498;50.916;4.698;2023-04-30T14:25:58;5.97;;;2.02;;
76606;SDS011;65498;50.916;4.698;2023-04-30T14:28:26;5.50;;;1.98;;
76606;SDS011;65498;50.916;4.698;2023-04-30T14:30:53;5.17;;;2.12;;
76606;SDS011;65498;50.916;4.698;2023-04-30T14:33:21;7.20;;;2.00;;
76606;SDS011;65498;50.916;4.698;2023-04-30T14:35:48;5.50;;;2.25;;
76606;SDS011;65498;50.916;4.698;2023-04-30T14:38:16;5.72;;;2.00;;
76606;SDS011;65498;50.916;4.698;2023-04-30T14:40:45;5.42;;;2.10;;
76606;SDS011;65498;50.916;4.698;2023-04-30T14:43:12;5.00;;;2.10;;
76606;SDS011;65498;50.916;4.698;2023-04-30T14:45:40;4.75;;;2.20;;
76606;SDS011;65498;50.916;4.698;2023-04-30T14:48:09;4.60;;;2.00;;
76606;SDS011;65498;50.916;4.698;2023-04-30T14:50:37;4.87;;;2.10;;
76606;SDS011;65498;50.916;4.698;2023-04-30T14:53:05;5.47;;;2.10;;
76606;SDS011;65498;50.916;4.698;2023-04-30T14:55:34;4.63;;;1.83;;
76606;SDS011;65498;50.916;4.698;2023-04-30T14:58:01;5.25;;;2.22;;
76606;SDS011;65498;50.916;4.698;2023-04-30T15:00:30;5.83;;;1.98;;
76606;SDS011;65498;50.916;4.698;2023-04-30T15:02:58;5.08;;;1.85;;
76606;SDS011;65498;50.916;4.698;2023-04-30T15:05:25;4.40;;;1.75;;
76606;SDS011;65498;50.916;4.698;2023-04-30T15:07:54;4.75;;;1.90;;
76606;SDS011;65498;50.916;4.698;2023-04-30T15:10:21;5.00;;;1.95;;
76606;SDS011;65498;50.916;4.698;2023-04-30T15:12:49;6.00;;;1.82;;
76606;SDS011;65498;50.916;4.698;2023-04-30T15:15:16;4.15;;;1.85;;
76606;SDS011;65498;50.916;4.698;2023-04-30T15:17:46;5.53;;;2.00;;